sensor_id;sensor_type;location;lat;lon;timestamp;P1;durP1;ratioP1;P2;durP2;ratioP2
8435;SDS011;4255;48.730;9.156;2023-02-28T00:00:47;3.33;;;3.13;;
8435;SDS011;4255;48.730;9.156;2023-02-28T00:03:13;3.77;;;3.50;;
8435;SDS011;4255;48.730;9.156;2023-02-28T00:05:38;5.30;;;4.57;;
8435;SDS011;4255;48.730;9.156;2023-02-28T00:08:04;4.13;;;3.60;;
8435;SDS011;4255;48.730;9.156;2023-02-28T00:10:30;4.57;;;4.13;;
8435;SDS011;4255;48.730;9.156;2023-02-28T00:12:59;7.80;;;4.80;;
8435;SDS011;4255;48.730;9.156;2023-02-28T00:15:27;4.80;;;4.38;;
8435;SDS011;4255;48.730;9.156;2023-02-28T00:17:53;4.63;;;4.07;;
8435;SDS011;4255;48.730;9.156;2023-02-28T00:20:19;6.40;;;5.13;;
8435;SDS011;4255;48.730;9.156;2023-02-28T00:22:46;5.18;;;4.60;;
8435;SDS011;4255;48.730;9.156;2023-02-28T00:25:14;4.75;;;4.35;;
8435;SDS011;4255;48.730;9.156;2023-02-28T00:27:43;5.13;;;4.50;;
8435;SDS011;4255;48.730;9.156;2023-02-28T00:30:11;4.78;;;4.07;;
8435;SDS011;4255;48.730;9.156;2023-02-28T00:32:38;4.90;;;4.50;;
8435;SDS011;4255;48.730;9.156;2023-02-28T00:35:04;7.23;;;5.27;;
8435;SDS011;4255;48.730;9.156;2023-02-28T00:37:30;6.65;;;4.93;;
8435;SDS011;4255;48.730;9.156;2023-02-28T00:39:56;4.73;;;4.40;;
8435;SDS011;4255;48.730;9.156;2023-02-28T00:42:22;5.43;;;4.90;;
8435;SDS011;4255;48.730;9.156;2023-02-28T00:44:48;5.25;;;4.85;;
8435;SDS011;4255;48.730;9.156;2023-02-28T00:47:13;4.30;;;4.00;;
8435;SDS011;4255;48.730;9.156;2023-02-28T00:49:39;4.70;;;4.40;;
8435;SDS011;4255;48.730;9.156;2023-02-28T00:52:05;4.93;;;4.33;;
8435;SDS011;4255;48.730;9.156;2023-02-28T00:54:31;4.90;;;4.20;;
8435;SDS011;4255;48.730;9.156;2023-02-28T00:56:57;4.70;;;4.30;;
8435;SDS011;4255;48.730;9.156;2023-02-28T00:59:22;7.80;;;5.73;;
8435;SDS011;4255;48.730;9.156;2023-02-28T01:01:48;4.73;;;4.20;;
8435;SDS011;4255;48.730;9.156;2023-02-28T01:04:14;5.83;;;4.87;;
8435;SDS011;4255;48.730;9.156;2023-02-28T01:06:39;4.67;;;4.23;;
8435;SDS011;4255;48.730;9.156;2023-02-28T01:09:05;5.50;;;5.10;;
8435;SDS011;4255;48.730;9.156;2023-02-28T01:11:32;5.57;;;4.80;;
8435;SDS011;4255;48.730;9.156;2023-02-28T01:13:58;5.50;;;5.00;;
8435;SDS011;4255;48.730;9.156;2023-02-28T01:16:24;10.50;;;5.50;;
8435;SDS011;4255;48.730;9.156;2023-02-28T01:18:50;7.47;;;4.57;;
8435;SDS011;4255;48.730;9.156;2023-02-28T01:21:17;5.45;;;4.95;;
8435;SDS011;4255;48.730;9.156;2023-02-28T01:23:44;7.60;;;4.55;;
8435;SDS011;4255;48.730;9.156;2023-02-28T01:26:17;5.80;;;5.30;;
8435;SDS011;4255;48.730;9.156;2023-02-28T01:28:47;4.80;;;4.35;;
8435;SDS011;4255;48.730;9.156;2023-02-28T01:31:14;5.05;;;4.65;;
8435;SDS011;4255;48.730;9.156;2023-02-28T01:33:40;8.20;;;5.00;;
8435;SDS011;4255;48.730;9.156;2023-02-28T01:36:07;11.13;;;4.55;;
8435;SDS011;4255;48.730;9.156;2023-02-28T01:38:36;5.05;;;4.65;;
8435;SDS011;4255;48.730;9.156;2023-02-28T01:41:01;7.03;;;4.90;;
8435;SDS011;4255;48.730;9.156;2023-02-28T01:43:29;5.70;;;5.00;;
8435;SDS011;4255;48.730;9.156;2023-02-28T01:45:57;11.10;;;4.85;;
8435;SDS011;4255;48.730;9.156;2023-02-28T01:48:42;6.97;;;5.35;;
8435;SDS011;4255;48.730;9.156;2023-02-28T01:51:21;8.23;;;5.40;;
8435;SDS011;4255;48.730;9.156;2023-02-28T01:53:51;6.78;;;4.75;;
8435;SDS011;4255;48.730;9.156;2023-02-28T01:56:23;8.13;;;5.90;;
8435;SDS011;4255;48.730;9.156;2023-02-28T01:58:53;6.15;;;5.07;;
8435;SDS011;4255;48.730;9.156;2023-02-28T02:01:20;13.50;;;5.60;;
8435;SDS011;4255;48.730;9.156;2023-02-28T02:03:48;4.90;;;4.50;;
8435;SDS011;4255;48.730;9.156;2023-02-28T02:06:20;10.95;;;6.07;;
8435;SDS011;4255;48.730;9.156;2023-02-28T02:08:47;5.22;;;4.72;;
8435;SDS011;4255;48.730;9.156;2023-02-28T02:11:13;7.50;;;5.77;;
8435;SDS011;4255;48.730;9.156;2023-02-28T02:24:59;6.10;;;5.47;;
8435;SDS011;4255;48.730;9.156;2023-02-28T02:27:55;6.10;;;5.45;;
8435;SDS011;4255;48.730;9.156;2023-02-28T02:30:33;5.40;;;4.90;;
8435;SDS011;4255;48.730;9.156;2023-02-28T02:33:40;6.82;;;6.18;;
8435;SDS011;4255;48.730;9.156;2023-02-28T02:36:33;9.25;;;5.13;;
8435;SDS011;4255;48.730;9.156;2023-02-28T02:39:14;5.80;;;5.20;;
8435;SDS011;4255;48.730;9.156;2023-02-28T02:42:09;7.85;;;6.05;;
8435;SDS011;4255;48.730;9.156;2023-02-28T02:44:42;6.25;;;5.65;;
8435;SDS011;4255;48.730;9.156;2023-02-28T02:47:15;7.45;;;5.88;;
8435;SDS011;4255;48.730;9.156;2023-02-28T02:49:49;7.45;;;6.85;;
8435;SDS011;4255;48.730;9.156;2023-02-28T02:52:18;6.07;;;5.10;;
8435;SDS011;4255;48.730;9.156;2023-02-28T02:54:47;6.90;;;5.82;;
8435;SDS011;4255;48.730;9.156;2023-02-28T02:57:19;7.25;;;6.32;;
8435;SDS011;4255;48.730;9.156;2023-02-28T03:00:09;6.50;;;5.90;;
8435;SDS011;4255;48.730;9.156;2023-02-28T03:02:37;7.88;;;6.78;;
8435;SDS011;4255;48.730;9.156;2023-02-28T03:05:07;6.13;;;5.65;;
8435;SDS011;4255;48.730;9.156;2023-02-28T03:11:03;10.57;;;6.30;;
8435;SDS011;4255;48.730;9.156;2023-02-28T03:19:38;9.18;;;6.65;;
8435;SDS011;4255;48.730;9.156;2023-02-28T03:28:01;8.23;;;7.10;;
8435;SDS011;4255;48.730;9.156;2023-02-28T03:33:38;13.02;;;6.57;;
8435;SDS011;4255;48.730;9.156;2023-02-28T03:36:13;8.77;;;6.00;;
8435;SDS011;4255;48.730;9.156;2023-02-28T03:38:47;7.05;;;4.63;;
8435;SDS011;4255;48.730;9.156;2023-02-28T03:41:47;7.15;;;6.50;;
8435;SDS011;4255;48.730;9.156;2023-02-28T03:44:41;8.98;;;6.47;;
8435;SDS011;4255;48.730;9.156;2023-02-28T03:47:11;6.57;;;5.97;;
8435;SDS011;4255;48.730;9.156;2023-02-28T03:50:04;6.70;;;6.00;;
8435;SDS011;4255;48.730;9.156;2023-02-28T03:52:38;9.40;;;6.05;;
8435;SDS011;4255;48.730;9.156;2023-02-28T03:55:10;7.15;;;6.20;;
8435;SDS011;4255;48.730;9.156;2023-02-28T03:57:49;7.95;;;6.30;;
8435;SDS011;4255;48.730;9.156;2023-02-28T04:02:46;16.75;;;7.00;;
8435;SDS011;4255;48.730;9.156;2023-02-28T04:05:17;7.55;;;5.93;;
8435;SDS011;4255;48.730;9.156;2023-02-28T04:07:44;8.90;;;7.00;;
8435;SDS011;4255;48.730;9.156;2023-02-28T04:10:10;9.20;;;6.27;;
8435;SDS011;4255;48.730;9.156;2023-02-28T04:12:37;7.88;;;6.40;;
8435;SDS011;4255;48.730;9.156;2023-02-28T04:15:02;6.75;;;4.85;;
8435;SDS011;4255;48.730;9.156;2023-02-28T04:17:28;11.27;;;7.27;;
8435;SDS011;4255;48.730;9.156;2023-02-28T04:19:54;7.17;;;5.30;;
8435;SDS011;4255;48.730;9.156;2023-02-28T04:22:22;6.25;;;5.65;;
8435;SDS011;4255;48.730;9.156;2023-02-28T04:24:51;6.70;;;6.10;;
8435;SDS011;4255;48.730;9.156;2023-02-28T04:27:18;6.32;;;5.72;;
8435;SDS011;4255;48.730;9.156;2023-02-28T04:29:44;7.85;;;7.05;;
8435;SDS011;4255;48.730;9.156;2023-02-28T04:32:10;8.37;;;5.37;;
8435;SDS011;4255;48.730;9.156;2023-02-28T04:34:36;9.63;;;6.33;;
8435;SDS011;4255;48.730;9.156;2023-02-28T04:37:01;8.37;;;6.27;;
8435;SDS011;4255;48.730;9.156;2023-02-28T04:39:28;6.63;;;6.00;;
8435;SDS011;4255;48.730;9.156;2023-02-28T04:41:54;7.68;;;5.45;;
8435;SDS011;4255;48.730;9.156;2023-02-28T04:44:20;8.98;;;5.18;;
8435;SDS011;4255;48.730;9.156;2023-02-28T04:46:47;6.80;;;6.20;;
8435;SDS011;4255;48.730;9.156;2023-02-28T04:49:13;10.90;;;6.70;;
8435;SDS011;4255;48.730;9.156;2023-02-28T04:51:39;8.38;;;7.10;;
8435;SDS011;4255;48.730;9.156;2023-02-28T04:54:05;7.13;;;6.43;;
8435;SDS011;4255;48.730;9.156;2023-02-28T04:56:31;7.93;;;6.47;;
8435;SDS011;4255;48.730;9.156;2023-02-28T04:58:57;10.45;;;6.63;;
8435;SDS011;4255;48.730;9.156;2023-02-28T05:01:27;7.73;;;6.33;;
8435;SDS011;4255;48.730;9.156;2023-02-28T05:03:55;5.53;;;5.00;;
8435;SDS011;4255;48.730;9.156;2023-02-28T05:06:26;10.38;;;7.30;;
8435;SDS011;4255;48.730;9.156;2023-02-28T05:08:52;7.88;;;5.93;;
8435;SDS011;4255;48.730;9.156;2023-02-28T05:11:25;10.83;;;8.00;;
8435;SDS011;4255;48.730;9.156;2023-02-28T05:14:03;10.35;;;7.97;;
8435;SDS011;4255;48.730;9.156;2023-02-28T05:16:32;15.32;;;5.63;;
8435;SDS011;4255;48.730;9.156;2023-02-28T05:18:57;13.03;;;7.23;;
8435;SDS011;4255;48.730;9.156;2023-02-28T05:21:28;12.00;;;7.77;;
8435;SDS011;4255;48.730;9.156;2023-02-28T05:23:59;9.32;;;6.15;;
8435;SDS011;4255;48.730;9.156;2023-02-28T05:26:27;12.02;;;7.03;;
8435;SDS011;4255;48.730;9.156;2023-02-28T05:28:53;7.90;;;6.65;;
8435;SDS011;4255;48.730;9.156;2023-02-28T05:31:19;9.30;;;6.80;;
8435;SDS011;4255;48.730;9.156;2023-02-28T05:33:45;10.77;;;7.60;;
8435;SDS011;4255;48.730;9.156;2023-02-28T05:36:11;9.80;;;7.60;;
8435;SDS011;4255;48.730;9.156;2023-02-28T05:38:37;7.63;;;6.80;;
8435;SDS011;4255;48.730;9.156;2023-02-28T05:41:09;13.87;;;7.80;;
8435;SDS011;4255;48.730;9.156;2023-02-28T05:43:36;11.38;;;7.85;;
8435;SDS011;4255;48.730;9.156;2023-02-28T05:46:05;11.02;;;7.97;;
8435;SDS011;4255;48.730;9.156;2023-02-28T05:48:33;10.32;;;7.88;;
8435;SDS011;4255;48.730;9.156;2023-02-28T05:51:00;12.45;;;8.70;;
8435;SDS011;4255;48.730;9.156;2023-02-28T05:53:25;7.23;;;6.53;;
8435;SDS011;4255;48.730;9.156;2023-02-28T05:55:51;9.87;;;7.17;;
8435;SDS011;4255;48.730;9.156;2023-02-28T05:58:17;11.93;;;7.37;;
8435;SDS011;4255;48.730;9.156;2023-02-28T06:00:43;17.67;;;8.48;;
8435;SDS011;4255;48.730;9.156;2023-02-28T06:03:09;7.67;;;5.13;;
8435;SDS011;4255;48.730;9.156;2023-02-28T06:05:34;15.60;;;9.07;;
8435;SDS011;4255;48.730;9.156;2023-02-28T06:08:00;10.10;;;7.80;;
8435;SDS011;4255;48.730;9.156;2023-02-28T06:10:26;11.07;;;7.80;;
8435;SDS011;4255;48.730;9.156;2023-02-28T06:12:51;13.47;;;10.47;;
8435;SDS011;4255;48.730;9.156;2023-02-28T06:15:17;6.60;;;5.60;;
8435;SDS011;4255;48.730;9.156;2023-02-28T06:17:43;12.37;;;8.23;;
8435;SDS011;4255;48.730;9.156;2023-02-28T06:20:09;12.77;;;9.43;;
8435;SDS011;4255;48.730;9.156;2023-02-28T06:22:37;13.25;;;8.60;;
8435;SDS011;4255;48.730;9.156;2023-02-28T06:25:04;12.18;;;7.95;;
8435;SDS011;4255;48.730;9.156;2023-02-28T06:27:31;12.57;;;9.75;;
8435;SDS011;4255;48.730;9.156;2023-02-28T06:29:57;10.20;;;6.80;;
8435;SDS011;4255;48.730;9.156;2023-02-28T06:32:23;13.33;;;8.93;;
8435;SDS011;4255;48.730;9.156;2023-02-28T06:34:48;11.03;;;9.83;;
8435;SDS011;4255;48.730;9.156;2023-02-28T06:37:15;9.02;;;7.55;;
8435;SDS011;4255;48.730;9.156;2023-02-28T06:39:41;13.40;;;8.48;;
8435;SDS011;4255;48.730;9.156;2023-02-28T06:42:07;7.60;;;6.60;;
8435;SDS011;4255;48.730;9.156;2023-02-28T06:44:32;18.13;;;8.13;;
8435;SDS011;4255;48.730;9.156;2023-02-28T06:47:00;13.38;;;9.27;;
8435;SDS011;4255;48.730;9.156;2023-02-28T06:49:30;9.82;;;8.80;;
8435;SDS011;4255;48.730;9.156;2023-02-28T06:51:57;7.43;;;6.25;;
8435;SDS011;4255;48.730;9.156;2023-02-28T06:54:23;12.80;;;9.87;;
8435;SDS011;4255;48.730;9.156;2023-02-28T06:56:49;10.57;;;7.53;;
8435;SDS011;4255;48.730;9.156;2023-02-28T06:59:14;11.13;;;8.23;;
8435;SDS011;4255;48.730;9.156;2023-02-28T07:01:40;12.88;;;9.25;;
8435;SDS011;4255;48.730;9.156;2023-02-28T07:04:06;6.13;;;5.47;;
8435;SDS011;4255;48.730;9.156;2023-02-28T07:06:32;12.18;;;8.00;;
8435;SDS011;4255;48.730;9.156;2023-02-28T07:08:58;10.63;;;7.87;;
8435;SDS011;4255;48.730;9.156;2023-02-28T07:11:25;17.37;;;6.53;;
8435;SDS011;4255;48.730;9.156;2023-02-28T07:13:52;11.40;;;8.15;;
8435;SDS011;4255;48.730;9.156;2023-02-28T07:16:19;18.58;;;10.52;;
8435;SDS011;4255;48.730;9.156;2023-02-28T07:18:45;12.55;;;8.40;;
8435;SDS011;4255;48.730;9.156;2023-02-28T07:21:10;14.50;;;9.43;;
8435;SDS011;4255;48.730;9.156;2023-02-28T07:23:37;19.07;;;9.53;;
8435;SDS011;4255;48.730;9.156;2023-02-28T07:26:03;16.60;;;8.95;;
8435;SDS011;4255;48.730;9.156;2023-02-28T07:28:30;19.63;;;10.30;;
8435;SDS011;4255;48.730;9.156;2023-02-28T07:30:55;14.00;;;9.40;;
8435;SDS011;4255;48.730;9.156;2023-02-28T07:33:21;15.00;;;10.10;;
8435;SDS011;4255;48.730;9.156;2023-02-28T07:35:48;14.25;;;8.30;;
8435;SDS011;4255;48.730;9.156;2023-02-28T07:38:14;23.33;;;11.97;;
8435;SDS011;4255;48.730;9.156;2023-02-28T07:40:40;15.45;;;9.85;;
8435;SDS011;4255;48.730;9.156;2023-02-28T07:43:06;12.07;;;9.20;;
8435;SDS011;4255;48.730;9.156;2023-02-28T07:45:31;14.90;;;9.47;;
8435;SDS011;4255;48.730;9.156;2023-02-28T07:47:59;11.88;;;10.05;;
8435;SDS011;4255;48.730;9.156;2023-02-28T07:50:25;14.52;;;8.77;;
8435;SDS011;4255;48.730;9.156;2023-02-28T07:52:54;20.73;;;11.45;;
8435;SDS011;4255;48.730;9.156;2023-02-28T07:55:19;14.70;;;10.37;;
8435;SDS011;4255;48.730;9.156;2023-02-28T07:57:45;14.90;;;11.03;;
8435;SDS011;4255;48.730;9.156;2023-02-28T08:00:11;12.83;;;9.67;;
8435;SDS011;4255;48.730;9.156;2023-02-28T08:02:38;18.15;;;10.85;;
8435;SDS011;4255;48.730;9.156;2023-02-28T08:05:04;12.47;;;8.50;;
8435;SDS011;4255;48.730;9.156;2023-02-28T08:07:31;19.10;;;12.10;;
8435;SDS011;4255;48.730;9.156;2023-02-28T08:09:57;10.50;;;8.98;;
8435;SDS011;4255;48.730;9.156;2023-02-28T08:12:23;11.63;;;8.23;;
8435;SDS011;4255;48.730;9.156;2023-02-28T08:14:48;13.20;;;8.60;;
8435;SDS011;4255;48.730;9.156;2023-02-28T08:17:14;15.20;;;9.57;;
8435;SDS011;4255;48.730;9.156;2023-02-28T08:19:39;14.90;;;10.90;;
8435;SDS011;4255;48.730;9.156;2023-02-28T08:22:05;15.80;;;9.87;;
8435;SDS011;4255;48.730;9.156;2023-02-28T08:24:31;16.60;;;9.70;;
8435;SDS011;4255;48.730;9.156;2023-02-28T08:26:56;13.83;;;11.20;;
8435;SDS011;4255;48.730;9.156;2023-02-28T08:29:22;8.70;;;6.90;;
8435;SDS011;4255;48.730;9.156;2023-02-28T08:31:48;16.90;;;10.50;;
8435;SDS011;4255;48.730;9.156;2023-02-28T08:34:14;16.43;;;11.30;;
8435;SDS011;4255;48.730;9.156;2023-02-28T08:36:41;15.63;;;11.25;;
8435;SDS011;4255;48.730;9.156;2023-02-28T08:39:08;16.08;;;10.13;;
8435;SDS011;4255;48.730;9.156;2023-02-28T08:41:34;9.70;;;7.78;;
8435;SDS011;4255;48.730;9.156;2023-02-28T08:44:00;10.60;;;7.90;;
8435;SDS011;4255;48.730;9.156;2023-02-28T08:46:26;20.38;;;10.02;;
8435;SDS011;4255;48.730;9.156;2023-02-28T08:48:52;15.87;;;7.80;;
8435;SDS011;4255;48.730;9.156;2023-02-28T08:51:19;12.90;;;8.68;;
8435;SDS011;4255;48.730;9.156;2023-02-28T08:53:54;14.50;;;8.80;;
8435;SDS011;4255;48.730;9.156;2023-02-28T08:56:22;16.48;;;10.30;;
8435;SDS011;4255;48.730;9.156;2023-02-28T08:58:49;13.82;;;9.15;;
8435;SDS011;4255;48.730;9.156;2023-02-28T09:01:19;16.42;;;10.27;;
8435;SDS011;4255;48.730;9.156;2023-02-28T09:03:47;9.95;;;7.70;;
8435;SDS011;4255;48.730;9.156;2023-02-28T09:06:15;12.98;;;9.60;;
8435;SDS011;4255;48.730;9.156;2023-02-28T09:08:42;13.13;;;9.60;;
8435;SDS011;4255;48.730;9.156;2023-02-28T09:11:08;14.87;;;10.47;;
8435;SDS011;4255;48.730;9.156;2023-02-28T09:13:34;17.73;;;12.05;;
8435;SDS011;4255;48.730;9.156;2023-02-28T09:16:04;17.40;;;11.40;;
8435;SDS011;4255;48.730;9.156;2023-02-28T09:18:31;22.83;;;10.05;;
8435;SDS011;4255;48.730;9.156;2023-02-28T09:20:58;18.73;;;11.75;;
8435;SDS011;4255;48.730;9.156;2023-02-28T09:23:24;15.10;;;11.07;;
8435;SDS011;4255;48.730;9.156;2023-02-28T09:25:50;15.07;;;10.27;;
8435;SDS011;4255;48.730;9.156;2023-02-28T09:28:18;17.10;;;12.07;;
8435;SDS011;4255;48.730;9.156;2023-02-28T09:30:45;13.00;;;10.38;;
8435;SDS011;4255;48.730;9.156;2023-02-28T09:33:16;14.45;;;11.55;;
8435;SDS011;4255;48.730;9.156;2023-02-28T09:35:45;15.52;;;11.52;;
8435;SDS011;4255;48.730;9.156;2023-02-28T09:38:12;18.98;;;11.13;;
8435;SDS011;4255;48.730;9.156;2023-02-28T09:40:39;16.67;;;9.30;;
8435;SDS011;4255;48.730;9.156;2023-02-28T09:43:14;20.58;;;11.63;;
8435;SDS011;4255;48.730;9.156;2023-02-28T09:45:42;16.25;;;10.23;;
8435;SDS011;4255;48.730;9.156;2023-02-28T09:48:25;13.07;;;10.43;;
8435;SDS011;4255;48.730;9.156;2023-02-28T09:53:36;17.02;;;11.50;;
8435;SDS011;4255;48.730;9.156;2023-02-28T09:56:10;18.90;;;11.38;;
8435;SDS011;4255;48.730;9.156;2023-02-28T10:06:18;13.80;;;11.75;;
8435;SDS011;4255;48.730;9.156;2023-02-28T10:11:27;15.73;;;11.73;;
8435;SDS011;4255;48.730;9.156;2023-02-28T10:13:56;15.55;;;10.68;;
8435;SDS011;4255;48.730;9.156;2023-02-28T10:22:37;17.20;;;10.45;;
8435;SDS011;4255;48.730;9.156;2023-02-28T10:25:21;19.73;;;11.85;;
8435;SDS011;4255;48.730;9.156;2023-02-28T10:27:49;17.27;;;10.95;;
8435;SDS011;4255;48.730;9.156;2023-02-28T10:30:18;15.27;;;11.45;;
8435;SDS011;4255;48.730;9.156;2023-02-28T10:32:49;18.90;;;10.77;;
8435;SDS011;4255;48.730;9.156;2023-02-28T10:35:19;20.02;;;12.48;;
8435;SDS011;4255;48.730;9.156;2023-02-28T10:37:51;19.40;;;12.25;;
8435;SDS011;4255;48.730;9.156;2023-02-28T10:45:19;14.32;;;11.10;;
8435;SDS011;4255;48.730;9.156;2023-02-28T10:56:03;12.82;;;8.38;;
8435;SDS011;4255;48.730;9.156;2023-02-28T11:01:46;18.35;;;12.23;;
8435;SDS011;4255;48.730;9.156;2023-02-28T11:04:18;15.85;;;11.20;;
8435;SDS011;4255;48.730;9.156;2023-02-28T11:07:39;20.63;;;11.75;;
8435;SDS011;4255;48.730;9.156;2023-02-28T11:09:57;13.60;;;10.35;;
8435;SDS011;4255;48.730;9.156;2023-02-28T11:12:25;16.75;;;12.07;;
8435;SDS011;4255;48.730;9.156;2023-02-28T11:15:03;17.13;;;10.07;;
8435;SDS011;4255;48.730;9.156;2023-02-28T11:20:38;21.25;;;12.75;;
8435;SDS011;4255;48.730;9.156;2023-02-28T11:23:04;22.50;;;11.18;;
8435;SDS011;4255;48.730;9.156;2023-02-28T11:25:36;10.18;;;9.05;;
8435;SDS011;4255;48.730;9.156;2023-02-28T11:28:04;15.98;;;9.68;;
8435;SDS011;4255;48.730;9.156;2023-02-28T11:30:33;15.02;;;11.00;;
8435;SDS011;4255;48.730;9.156;2023-02-28T11:36:04;15.73;;;11.48;;
8435;SDS011;4255;48.730;9.156;2023-02-28T11:38:38;21.95;;;13.73;;
8435;SDS011;4255;48.730;9.156;2023-02-28T11:49:01;16.73;;;12.32;;
8435;SDS011;4255;48.730;9.156;2023-02-28T11:57:31;14.82;;;11.40;;
8435;SDS011;4255;48.730;9.156;2023-02-28T12:00:11;20.20;;;12.95;;
8435;SDS011;4255;48.730;9.156;2023-02-28T12:05:31;13.70;;;10.10;;
8435;SDS011;4255;48.730;9.156;2023-02-28T12:08:34;15.63;;;13.20;;
8435;SDS011;4255;48.730;9.156;2023-02-28T12:11:48;14.38;;;10.73;;
8435;SDS011;4255;48.730;9.156;2023-02-28T12:14:38;17.10;;;11.18;;
8435;SDS011;4255;48.730;9.156;2023-02-28T12:17:34;17.40;;;11.40;;
8435;SDS011;4255;48.730;9.156;2023-02-28T12:20:08;14.43;;;11.13;;
8435;SDS011;4255;48.730;9.156;2023-02-28T12:23:03;16.13;;;11.57;;
8435;SDS011;4255;48.730;9.156;2023-02-28T12:28:03;15.70;;;12.02;;
8435;SDS011;4255;48.730;9.156;2023-02-28T12:30:33;14.67;;;10.30;;
8435;SDS011;4255;48.730;9.156;2023-02-28T12:38:17;16.77;;;11.63;;
8435;SDS011;4255;48.730;9.156;2023-02-28T12:40:55;13.40;;;10.73;;
8435;SDS011;4255;48.730;9.156;2023-02-28T12:43:27;13.80;;;11.05;;
8435;SDS011;4255;48.730;9.156;2023-02-28T12:45:59;15.82;;;11.82;;
8435;SDS011;4255;48.730;9.156;2023-02-28T12:51:18;15.20;;;10.80;;
8435;SDS011;4255;48.730;9.156;2023-02-28T12:53:50;12.00;;;8.52;;
8435;SDS011;4255;48.730;9.156;2023-02-28T12:56:29;12.88;;;10.38;;
8435;SDS011;4255;48.730;9.156;2023-02-28T12:59:11;17.60;;;11.48;;
8435;SDS011;4255;48.730;9.156;2023-02-28T13:04:43;17.77;;;10.77;;
8435;SDS011;4255;48.730;9.156;2023-02-28T13:07:25;17.17;;;11.10;;
8435;SDS011;4255;48.730;9.156;2023-02-28T13:10:07;12.70;;;9.93;;
8435;SDS011;4255;48.730;9.156;2023-02-28T13:12:34;16.63;;;12.20;;
8435;SDS011;4255;48.730;9.156;2023-02-28T13:17:50;13.73;;;10.60;;
8435;SDS011;4255;48.730;9.156;2023-02-28T13:20:28;15.75;;;10.10;;
8435;SDS011;4255;48.730;9.156;2023-02-28T13:22:58;12.80;;;9.65;;
8435;SDS011;4255;48.730;9.156;2023-02-28T13:28:11;15.20;;;10.95;;
8435;SDS011;4255;48.730;9.156;2023-02-28T13:36:01;27.75;;;12.45;;
8435;SDS011;4255;48.730;9.156;2023-02-28T13:38:54;16.00;;;11.55;;
8435;SDS011;4255;48.730;9.156;2023-02-28T13:41:45;16.02;;;11.32;;
8435;SDS011;4255;48.730;9.156;2023-02-28T13:47:23;16.52;;;12.43;;
8435;SDS011;4255;48.730;9.156;2023-02-28T13:49:29;15.10;;;11.15;;
8435;SDS011;4255;48.730;9.156;2023-02-28T13:55:02;15.48;;;10.02;;
8435;SDS011;4255;48.730;9.156;2023-02-28T14:06:32;13.23;;;9.40;;
8435;SDS011;4255;48.730;9.156;2023-02-28T14:11:38;14.75;;;11.07;;
8435;SDS011;4255;48.730;9.156;2023-02-28T14:14:05;17.33;;;10.30;;
8435;SDS011;4255;48.730;9.156;2023-02-28T14:16:36;18.77;;;11.38;;
8435;SDS011;4255;48.730;9.156;2023-02-28T14:21:37;17.30;;;12.68;;
8435;SDS011;4255;48.730;9.156;2023-02-28T14:35:05;15.32;;;10.95;;
8435;SDS011;4255;48.730;9.156;2023-02-28T14:37:52;13.38;;;9.85;;
8435;SDS011;4255;48.730;9.156;2023-02-28T14:40:22;14.98;;;9.48;;
8435;SDS011;4255;48.730;9.156;2023-02-28T14:43:04;14.18;;;10.15;;
8435;SDS011;4255;48.730;9.156;2023-02-28T14:45:32;14.60;;;9.60;;
8435;SDS011;4255;48.730;9.156;2023-02-28T14:48:01;10.77;;;9.07;;
8435;SDS011;4255;48.730;9.156;2023-02-28T14:50:30;15.30;;;10.45;;
8435;SDS011;4255;48.730;9.156;2023-02-28T14:52:59;15.63;;;11.20;;
8435;SDS011;4255;48.730;9.156;2023-02-28T14:55:29;16.45;;;11.50;;
8435;SDS011;4255;48.730;9.156;2023-02-28T14:57:58;14.82;;;10.52;;
8435;SDS011;4255;48.730;9.156;2023-02-28T15:00:27;19.40;;;10.27;;
8435;SDS011;4255;48.730;9.156;2023-02-28T15:02:58;12.95;;;9.85;;
8435;SDS011;4255;48.730;9.156;2023-02-28T15:05:29;15.48;;;9.25;;
8435;SDS011;4255;48.730;9.156;2023-02-28T15:10:31;14.95;;;8.60;;
8435;SDS011;4255;48.730;9.156;2023-02-28T15:12:58;13.07;;;10.52;;
8435;SDS011;4255;48.730;9.156;2023-02-28T15:15:35;13.32;;;9.20;;
8435;SDS011;4255;48.730;9.156;2023-02-28T15:18:17;14.02;;;9.07;;
8435;SDS011;4255;48.730;9.156;2023-02-28T15:21:02;12.75;;;11.02;;
8435;SDS011;4255;48.730;9.156;2023-02-28T15:23:31;11.10;;;8.95;;
8435;SDS011;4255;48.730;9.156;2023-02-28T15:25:59;13.77;;;10.20;;
8435;SDS011;4255;48.730;9.156;2023-02-28T15:28:25;15.20;;;10.63;;
8435;SDS011;4255;48.730;9.156;2023-02-28T15:30:55;14.13;;;11.13;;
8435;SDS011;4255;48.730;9.156;2023-02-28T15:33:25;12.38;;;9.35;;
8435;SDS011;4255;48.730;9.156;2023-02-28T15:36:06;13.88;;;10.65;;
8435;SDS011;4255;48.730;9.156;2023-02-28T15:38:38;12.52;;;10.05;;
8435;SDS011;4255;48.730;9.156;2023-02-28T15:41:03;17.60;;;10.93;;
8435;SDS011;4255;48.730;9.156;2023-02-28T15:43:36;12.82;;;9.95;;
8435;SDS011;4255;48.730;9.156;2023-02-28T15:46:03;20.02;;;11.18;;
8435;SDS011;4255;48.730;9.156;2023-02-28T15:48:34;13.68;;;10.23;;
8435;SDS011;4255;48.730;9.156;2023-02-28T15:51:17;13.50;;;9.20;;
8435;SDS011;4255;48.730;9.156;2023-02-28T15:53:48;13.20;;;9.88;;
8435;SDS011;4255;48.730;9.156;2023-02-28T15:58:46;14.40;;;10.70;;
8435;SDS011;4255;48.730;9.156;2023-02-28T16:01:20;17.37;;;11.40;;
8435;SDS011;4255;48.730;9.156;2023-02-28T16:04:11;15.65;;;9.85;;
8435;SDS011;4255;48.730;9.156;2023-02-28T16:06:42;15.90;;;10.50;;
8435;SDS011;4255;48.730;9.156;2023-02-28T16:09:12;13.18;;;9.02;;
8435;SDS011;4255;48.730;9.156;2023-02-28T16:11:45;14.40;;;10.68;;
8435;SDS011;4255;48.730;9.156;2023-02-28T16:14:14;18.38;;;10.82;;
8435;SDS011;4255;48.730;9.156;2023-02-28T16:16:44;14.77;;;11.07;;
8435;SDS011;4255;48.730;9.156;2023-02-28T16:19:11;18.55;;;12.00;;
8435;SDS011;4255;48.730;9.156;2023-02-28T16:21:37;20.47;;;11.60;;
8435;SDS011;4255;48.730;9.156;2023-02-28T16:24:02;15.27;;;11.87;;
8435;SDS011;4255;48.730;9.156;2023-02-28T16:26:28;12.57;;;7.97;;
8435;SDS011;4255;48.730;9.156;2023-02-28T16:28:54;16.97;;;11.10;;
8435;SDS011;4255;48.730;9.156;2023-02-28T16:31:19;16.93;;;11.67;;
8435;SDS011;4255;48.730;9.156;2023-02-28T16:33:45;15.17;;;10.83;;
8435;SDS011;4255;48.730;9.156;2023-02-28T16:36:18;17.77;;;11.53;;
8435;SDS011;4255;48.730;9.156;2023-02-28T16:38:45;20.13;;;11.05;;
8435;SDS011;4255;48.730;9.156;2023-02-28T16:41:12;17.40;;;11.50;;
8435;SDS011;4255;48.730;9.156;2023-02-28T16:43:43;17.35;;;10.90;;
8435;SDS011;4255;48.730;9.156;2023-02-28T16:46:10;20.08;;;12.80;;
8435;SDS011;4255;48.730;9.156;2023-02-28T16:48:37;17.58;;;11.85;;
8435;SDS011;4255;48.730;9.156;2023-02-28T16:51:05;18.15;;;11.88;;
8435;SDS011;4255;48.730;9.156;2023-02-28T16:53:31;18.08;;;11.98;;
8435;SDS011;4255;48.730;9.156;2023-02-28T16:55:57;17.80;;;12.40;;
8435;SDS011;4255;48.730;9.156;2023-02-28T16:58:23;18.65;;;12.70;;
8435;SDS011;4255;48.730;9.156;2023-02-28T17:00:50;19.85;;;13.77;;
8435;SDS011;4255;48.730;9.156;2023-02-28T17:03:24;21.95;;;13.25;;
8435;SDS011;4255;48.730;9.156;2023-02-28T17:05:51;19.35;;;13.43;;
8435;SDS011;4255;48.730;9.156;2023-02-28T17:08:17;21.05;;;12.05;;
8435;SDS011;4255;48.730;9.156;2023-02-28T17:10:43;19.80;;;13.50;;
8435;SDS011;4255;48.730;9.156;2023-02-28T17:13:09;21.23;;;14.47;;
8435;SDS011;4255;48.730;9.156;2023-02-28T17:15:35;20.77;;;12.40;;
8435;SDS011;4255;48.730;9.156;2023-02-28T17:18:02;20.40;;;14.60;;
8435;SDS011;4255;48.730;9.156;2023-02-28T17:20:28;17.50;;;12.15;;
8435;SDS011;4255;48.730;9.156;2023-02-28T17:22:54;25.05;;;13.60;;
8435;SDS011;4255;48.730;9.156;2023-02-28T17:25:21;18.05;;;13.75;;
8435;SDS011;4255;48.730;9.156;2023-02-28T17:27:47;19.58;;;15.18;;
8435;SDS011;4255;48.730;9.156;2023-02-28T17:30:18;20.13;;;13.15;;
8435;SDS011;4255;48.730;9.156;2023-02-28T17:32:45;12.50;;;9.93;;
8435;SDS011;4255;48.730;9.156;2023-02-28T17:35:11;18.70;;;12.70;;
8435;SDS011;4255;48.730;9.156;2023-02-28T17:37:37;17.47;;;11.40;;
8435;SDS011;4255;48.730;9.156;2023-02-28T17:40:03;19.33;;;13.60;;
8435;SDS011;4255;48.730;9.156;2023-02-28T17:42:30;18.73;;;13.20;;
8435;SDS011;4255;48.730;9.156;2023-02-28T17:44:55;20.07;;;12.90;;
8435;SDS011;4255;48.730;9.156;2023-02-28T17:47:21;18.80;;;12.40;;